sensor_id;sensor_type;location;lat;lon;timestamp;temperature;humidity
7738;DHT22;29398;45.328;5.558;2022-08-05T00:00:42;27.70;53.20
7738;DHT22;29398;45.328;5.558;2022-08-05T00:01:43;27.70;53.30
7738;DHT22;29398;45.328;5.558;2022-08-05T00:02:45;27.70;53.50
7738;DHT22;29398;45.328;5.558;2022-08-05T00:03:48;27.70;53.80
7738;DHT22;29398;45.328;5.558;2022-08-05T00:04:51;27.70;53.60
7738;DHT22;29398;45.328;5.558;2022-08-05T00:05:52;27.60;53.70
7738;DHT22;29398;45.328;5.558;2022-08-05T00:06:54;27.60;53.80
7738;DHT22;29398;45.328;5.558;2022-08-05T00:07:55;27.60;53.80
7738;DHT22;29398;45.328;5.558;2022-08-05T00:08:57;27.60;53.90
7738;DHT22;29398;45.328;5.558;2022-08-05T00:10:00;27.60;54.10
7738;DHT22;29398;45.328;5.558;2022-08-05T00:11:05;27.50;54.20
7738;DHT22;29398;45.328;5.558;2022-08-05T00:12:07;27.50;54.10
7738;DHT22;29398;45.328;5.558;2022-08-05T00:13:09;27.50;54.30
7738;DHT22;29398;45.328;5.558;2022-08-05T00:14:10;27.50;54.30
7738;DHT22;29398;45.328;5.558;2022-08-05T00:15:12;27.50;54.40
7738;DHT22;29398;45.328;5.558;2022-08-05T00:16:14;27.50;54.50
7738;DHT22;29398;45.328;5.558;2022-08-05T00:17:16;27.40;54.50
7738;DHT22;29398;45.328;5.558;2022-08-05T00:18:17;27.40;54.60
7738;DHT22;29398;45.328;5.558;2022-08-05T00:19:21;27.30;54.50
7738;DHT22;29398;45.328;5.558;2022-08-05T00:20:22;27.30;54.60
7738;DHT22;29398;45.328;5.558;2022-08-05T00:21:24;27.30;54.70
7738;DHT22;29398;45.328;5.558;2022-08-05T00:22:25;27.30;54.90
7738;DHT22;29398;45.328;5.558;2022-08-05T00:23:27;27.30;54.80
7738;DHT22;29398;45.328;5.558;2022-08-05T00:24:28;27.20;55.00
7738;DHT22;29398;45.328;5.558;2022-08-05T00:25:30;27.20;55.10
7738;DHT22;29398;45.328;5.558;2022-08-05T00:26:31;27.20;55.20
7738;DHT22;29398;45.328;5.558;2022-08-05T00:27:33;27.20;55.20
7738;DHT22;29398;45.328;5.558;2022-08-05T00:28:35;27.20;55.40
7738;DHT22;29398;45.328;5.558;2022-08-05T00:29:37;27.20;55.50
7738;DHT22;29398;45.328;5.558;2022-08-05T00:30:39;27.20;55.60
7738;DHT22;29398;45.328;5.558;2022-08-05T00:31:41;27.10;55.60
7738;DHT22;29398;45.328;5.558;2022-08-05T00:32:43;27.10;55.70
7738;DHT22;29398;45.328;5.558;2022-08-05T00:33:44;27.10;55.80
7738;DHT22;29398;45.328;5.558;2022-08-05T00:34:48;27.10;55.80
7738;DHT22;29398;45.328;5.558;2022-08-05T00:35:49;27.10;56.10
7738;DHT22;29398;45.328;5.558;2022-08-05T00:36:51;27.00;56.10
7738;DHT22;29398;45.328;5.558;2022-08-05T00:37:52;27.00;56.00
7738;DHT22;29398;45.328;5.558;2022-08-05T00:38:54;27.00;56.20
7738;DHT22;29398;45.328;5.558;2022-08-05T00:39:55;26.90;56.30
7738;DHT22;29398;45.328;5.558;2022-08-05T00:40:57;26.90;56.30
7738;DHT22;29398;45.328;5.558;2022-08-05T00:41:58;26.90;56.60
7738;DHT22;29398;45.328;5.558;2022-08-05T00:43:01;26.80;56.60
7738;DHT22;29398;45.328;5.558;2022-08-05T00:44:03;26.90;56.80
7738;DHT22;29398;45.328;5.558;2022-08-05T00:45:07;26.80;56.70
7738;DHT22;29398;45.328;5.558;2022-08-05T00:46:09;26.80;56.90
7738;DHT22;29398;45.328;5.558;2022-08-05T00:47:11;26.80;56.80
7738;DHT22;29398;45.328;5.558;2022-08-05T00:48:14;26.80;56.90
7738;DHT22;29398;45.328;5.558;2022-08-05T00:49:16;26.70;56.80
7738;DHT22;29398;45.328;5.558;2022-08-05T00:50:21;26.70;56.90
7738;DHT22;29398;45.328;5.558;2022-08-05T00:51:23;26.70;57.00
7738;DHT22;29398;45.328;5.558;2022-08-05T00:52:24;26.70;57.20
7738;DHT22;29398;45.328;5.558;2022-08-05T00:53:27;26.70;57.20
7738;DHT22;29398;45.328;5.558;2022-08-05T00:54:29;26.70;57.20
7738;DHT22;29398;45.328;5.558;2022-08-05T00:55:31;26.70;57.30
7738;DHT22;29398;45.328;5.558;2022-08-05T00:56:33;26.60;57.20
7738;DHT22;29398;45.328;5.558;2022-08-05T00:57:35;26.60;57.30
7738;DHT22;29398;45.328;5.558;2022-08-05T00:58:36;26.60;57.40
7738;DHT22;29398;45.328;5.558;2022-08-05T00:59:38;26.60;57.30
7738;DHT22;29398;45.328;5.558;2022-08-05T01:00:40;26.60;57.50
7738;DHT22;29398;45.328;5.558;2022-08-05T01:01:42;26.50;57.70
7738;DHT22;29398;45.328;5.558;2022-08-05T01:02:43;26.50;57.70
7738;DHT22;29398;45.328;5.558;2022-08-05T01:03:46;26.50;57.90
7738;DHT22;29398;45.328;5.558;2022-08-05T01:04:48;26.50;58.00
7738;DHT22;29398;45.328;5.558;2022-08-05T01:05:50;26.40;57.90
7738;DHT22;29398;45.328;5.558;2022-08-05T01:06:53;26.40;58.00
7738;DHT22;29398;45.328;5.558;2022-08-05T01:07:54;26.40;58.10
7738;DHT22;29398;45.328;5.558;2022-08-05T01:08:57;26.40;58.10
7738;DHT22;29398;45.328;5.558;2022-08-05T01:10:00;26.40;58.70
7738;DHT22;29398;45.328;5.558;2022-08-05T01:11:06;26.30;58.20
7738;DHT22;29398;45.328;5.558;2022-08-05T01:12:13;26.40;58.40
7738;DHT22;29398;45.328;5.558;2022-08-05T01:13:20;26.40;58.50
7738;DHT22;29398;45.328;5.558;2022-08-05T01:14:32;26.30;58.50
7738;DHT22;29398;45.328;5.558;2022-08-05T01:15:39;26.30;58.70
7738;DHT22;29398;45.328;5.558;2022-08-05T01:16:48;26.30;58.90
7738;DHT22;29398;45.328;5.558;2022-08-05T01:17:55;26.30;59.00
7738;DHT22;29398;45.328;5.558;2022-08-05T01:19:07;26.30;58.80
7738;DHT22;29398;45.328;5.558;2022-08-05T01:20:18;26.30;59.00
7738;DHT22;29398;45.328;5.558;2022-08-05T01:21:43;26.20;58.90
7738;DHT22;29398;45.328;5.558;2022-08-05T01:23:00;26.20;59.30
7738;DHT22;29398;45.328;5.558;2022-08-05T01:24:18;26.30;59.50
7738;DHT22;29398;45.328;5.558;2022-08-05T01:27:08;26.30;60.00
7738;DHT22;29398;45.328;5.558;2022-08-05T01:28:21;26.20;59.20
7738;DHT22;29398;45.328;5.558;2022-08-05T01:29:28;26.20;59.30
7738;DHT22;29398;45.328;5.558;2022-08-05T01:30:33;26.10;59.10
7738;DHT22;29398;45.328;5.558;2022-08-05T01:31:42;26.10;59.10
7738;DHT22;29398;45.328;5.558;2022-08-05T01:32:45;26.00;58.90
7738;DHT22;29398;45.328;5.558;2022-08-05T01:34:54;25.80;59.00
7738;DHT22;29398;45.328;5.558;2022-08-05T01:35:58;25.70;59.60
7738;DHT22;29398;45.328;5.558;2022-08-05T01:37:05;25.70;60.20
7738;DHT22;29398;45.328;5.558;2022-08-05T01:38:09;25.70;59.80
7738;DHT22;29398;45.328;5.558;2022-08-05T01:39:11;25.70;59.80
7738;DHT22;29398;45.328;5.558;2022-08-05T01:40:14;25.80;59.80
7738;DHT22;29398;45.328;5.558;2022-08-05T01:41:20;25.80;59.70
7738;DHT22;29398;45.328;5.558;2022-08-05T01:42:25;25.90;59.70
7738;DHT22;29398;45.328;5.558;2022-08-05T01:43:28;25.90;59.80
7738;DHT22;29398;45.328;5.558;2022-08-05T01:44:32;26.00;59.90
7738;DHT22;29398;45.328;5.558;2022-08-05T01:45:34;26.00;59.90
7738;DHT22;29398;45.328;5.558;2022-08-05T01:46:38;26.00;60.00
7738;DHT22;29398;45.328;5.558;2022-08-05T01:47:40;25.90;60.00
7738;DHT22;29398;45.328;5.558;2022-08-05T01:48:44;25.80;59.90
7738;DHT22;29398;45.328;5.558;2022-08-05T01:49:47;25.70;60.10
7738;DHT22;29398;45.328;5.558;2022-08-05T01:50:51;25.70;60.10
7738;DHT22;29398;45.328;5.558;2022-08-05T01:51:57;25.80;60.90
7738;DHT22;29398;45.328;5.558;2022-08-05T01:53:03;25.80;60.20
7738;DHT22;29398;45.328;5.558;2022-08-05T01:54:06;25.80;60.00
7738;DHT22;29398;45.328;5.558;2022-08-05T01:55:10;25.90;60.80
7738;DHT22;29398;45.328;5.558;2022-08-05T01:56:15;25.90;60.10
7738;DHT22;29398;45.328;5.558;2022-08-05T01:57:23;25.80;60.20
7738;DHT22;29398;45.328;5.558;2022-08-05T01:58:28;25.80;60.10
7738;DHT22;29398;45.328;5.558;2022-08-05T01:59:33;25.80;60.20
7738;DHT22;29398;45.328;5.558;2022-08-05T02:00:36;25.80;60.30
7738;DHT22;29398;45.328;5.558;2022-08-05T02:01:39;25.70;60.30
7738;DHT22;29398;45.328;5.558;2022-08-05T02:02:44;25.80;60.30
7738;DHT22;29398;45.328;5.558;2022-08-05T02:03:51;25.70;60.40
7738;DHT22;29398;45.328;5.558;2022-08-05T02:04:55;25.70;60.50
7738;DHT22;29398;45.328;5.558;2022-08-05T02:10:12;25.50;60.50
7738;DHT22;29398;45.328;5.558;2022-08-05T02:11:15;25.50;60.70
7738;DHT22;29398;45.328;5.558;2022-08-05T02:12:23;25.50;60.70
7738;DHT22;29398;45.328;5.558;2022-08-05T02:13:32;25.50;60.70
7738;DHT22;29398;45.328;5.558;2022-08-05T02:14:41;25.40;61.00
7738;DHT22;29398;45.328;5.558;2022-08-05T02:15:49;25.40;61.70
7738;DHT22;29398;45.328;5.558;2022-08-05T02:16:54;25.40;61.30
7738;DHT22;29398;45.328;5.558;2022-08-05T02:17:59;25.40;61.50
7738;DHT22;29398;45.328;5.558;2022-08-05T02:19:09;25.40;61.50
7738;DHT22;29398;45.328;5.558;2022-08-05T02:20:15;25.40;61.70
7738;DHT22;29398;45.328;5.558;2022-08-05T02:21:21;25.40;62.60
7738;DHT22;29398;45.328;5.558;2022-08-05T02:22:27;25.40;61.60
7738;DHT22;29398;45.328;5.558;2022-08-05T02:23:32;25.40;61.90
7738;DHT22;29398;45.328;5.558;2022-08-05T02:24:37;25.40;62.00
7738;DHT22;29398;45.328;5.558;2022-08-05T02:25:43;25.40;61.90
7738;DHT22;29398;45.328;5.558;2022-08-05T02:26:48;25.30;62.50
7738;DHT22;29398;45.328;5.558;2022-08-05T02:27:50;25.30;62.00
7738;DHT22;29398;45.328;5.558;2022-08-05T02:28:55;25.30;62.20
7738;DHT22;29398;45.328;5.558;2022-08-05T02:30:00;25.20;62.60
7738;DHT22;29398;45.328;5.558;2022-08-05T02:31:05;25.20;62.70
7738;DHT22;29398;45.328;5.558;2022-08-05T02:32:09;25.20;62.60
7738;DHT22;29398;45.328;5.558;2022-08-05T02:33:15;25.20;62.80
7738;DHT22;29398;45.328;5.558;2022-08-05T02:34:19;25.10;62.80
7738;DHT22;29398;45.328;5.558;2022-08-05T02:35:23;25.10;63.10
7738;DHT22;29398;45.328;5.558;2022-08-05T02:36:26;25.10;63.00
7738;DHT22;29398;45.328;5.558;2022-08-05T02:37:30;25.10;64.00
7738;DHT22;29398;45.328;5.558;2022-08-05T02:38:33;24.90;63.50
7738;DHT22;29398;45.328;5.558;2022-08-05T02:39:37;24.90;63.70
7738;DHT22;29398;45.328;5.558;2022-08-05T02:40:41;24.80;64.20
7738;DHT22;29398;45.328;5.558;2022-08-05T02:41:44;24.80;64.20
7738;DHT22;29398;45.328;5.558;2022-08-05T02:42:47;23.70;63.90
7738;DHT22;29398;45.328;5.558;2022-08-05T02:43:52;24.70;64.30
7738;DHT22;29398;45.328;5.558;2022-08-05T02:44:56;24.60;64.20
7738;DHT22;29398;45.328;5.558;2022-08-05T02:46:01;24.50;64.70
7738;DHT22;29398;45.328;5.558;2022-08-05T02:47:04;24.50;64.40
7738;DHT22;29398;45.328;5.558;2022-08-05T02:48:07;24.50;64.60
7738;DHT22;29398;45.328;5.558;2022-08-05T02:49:09;24.50;64.70
7738;DHT22;29398;45.328;5.558;2022-08-05T02:50:12;24.50;64.80
7738;DHT22;29398;45.328;5.558;2022-08-05T02:51:15;24.50;65.00
7738;DHT22;29398;45.328;5.558;2022-08-05T02:52:18;24.50;65.30
7738;DHT22;29398;45.328;5.558;2022-08-05T02:53:20;24.50;65.20
7738;DHT22;29398;45.328;5.558;2022-08-05T02:54:23;24.50;65.50
7738;DHT22;29398;45.328;5.558;2022-08-05T02:55:25;24.50;65.40
7738;DHT22;29398;45.328;5.558;2022-08-05T02:56:28;24.40;65.30
7738;DHT22;29398;45.328;5.558;2022-08-05T02:57:29;24.50;65.60
7738;DHT22;29398;45.328;5.558;2022-08-05T02:58:33;24.40;65.60
7738;DHT22;29398;45.328;5.558;2022-08-05T02:59:38;24.40;65.40
7738;DHT22;29398;45.328;5.558;2022-08-05T03:00:43;24.40;65.80
7738;DHT22;29398;45.328;5.558;2022-08-05T03:01:45;24.40;66.00
7738;DHT22;29398;45.328;5.558;2022-08-05T03:02:51;24.40;65.90
7738;DHT22;29398;45.328;5.558;2022-08-05T03:03:55;24.40;66.10
7738;DHT22;29398;45.328;5.558;2022-08-05T03:04:58;24.40;65.80
7738;DHT22;29398;45.328;5.558;2022-08-05T03:06:01;24.40;66.00
7738;DHT22;29398;45.328;5.558;2022-08-05T03:07:04;24.40;66.40
7738;DHT22;29398;45.328;5.558;2022-08-05T03:08:06;24.40;66.10
7738;DHT22;29398;45.328;5.558;2022-08-05T03:09:11;24.50;66.50
7738;DHT22;29398;45.328;5.558;2022-08-05T03:10:14;24.50;66.30
7738;DHT22;29398;45.328;5.558;2022-08-05T03:11:18;24.40;66.70
7738;DHT22;29398;45.328;5.558;2022-08-05T03:12:28;24.40;66.40
7738;DHT22;29398;45.328;5.558;2022-08-05T03:13:31;24.40;67.10
7738;DHT22;29398;45.328;5.558;2022-08-05T03:14:32;24.40;66.60
7738;DHT22;29398;45.328;5.558;2022-08-05T03:15:36;24.40;66.90
7738;DHT22;29398;45.328;5.558;2022-08-05T03:16:37;24.40;67.00
7738;DHT22;29398;45.328;5.558;2022-08-05T03:17:39;24.30;67.00
7738;DHT22;29398;45.328;5.558;2022-08-05T03:18:41;24.30;67.00
7738;DHT22;29398;45.328;5.558;2022-08-05T03:19:43;24.30;67.20
7738;DHT22;29398;45.328;5.558;2022-08-05T03:20:44;24.30;67.50
7738;DHT22;29398;45.328;5.558;2022-08-05T03:21:46;24.30;68.10
7738;DHT22;29398;45.328;5.558;2022-08-05T03:22:47;24.30;67.40
7738;DHT22;29398;45.328;5.558;2022-08-05T03:23:49;24.30;67.90
7738;DHT22;29398;45.328;5.558;2022-08-05T03:24:51;24.30;67.90
7738;DHT22;29398;45.328;5.558;2022-08-05T03:25:53;24.30;67.70
7738;DHT22;29398;45.328;5.558;2022-08-05T03:26:55;24.40;68.60
7738;DHT22;29398;45.328;5.558;2022-08-05T03:27:57;24.40;68.00
7738;DHT22;29398;45.328;5.558;2022-08-05T03:28:58;24.30;68.00
7738;DHT22;29398;45.328;5.558;2022-08-05T03:30:00;24.30;68.00
7738;DHT22;29398;45.328;5.558;2022-08-05T03:31:03;24.30;68.10
7738;DHT22;29398;45.328;5.558;2022-08-05T03:32:07;24.30;68.10
7738;DHT22;29398;45.328;5.558;2022-08-05T03:33:08;24.30;68.20
7738;DHT22;29398;45.328;5.558;2022-08-05T03:34:11;24.30;68.30
7738;DHT22;29398;45.328;5.558;2022-08-05T03:35:13;24.20;67.60
7738;DHT22;29398;45.328;5.558;2022-08-05T03:36:15;24.20;68.20
7738;DHT22;29398;45.328;5.558;2022-08-05T03:37:17;24.10;68.40
7738;DHT22;29398;45.328;5.558;2022-08-05T03:38:20;24.10;69.20
7738;DHT22;29398;45.328;5.558;2022-08-05T03:39:22;24.10;68.60
7738;DHT22;29398;45.328;5.558;2022-08-05T03:40:24;24.10;68.80
7738;DHT22;29398;45.328;5.558;2022-08-05T03:41:25;24.20;68.70
7738;DHT22;29398;45.328;5.558;2022-08-05T03:42:30;24.20;68.90
7738;DHT22;29398;45.328;5.558;2022-08-05T03:43:31;24.20;68.90
7738;DHT22;29398;45.328;5.558;2022-08-05T03:44:33;24.10;68.90
7738;DHT22;29398;45.328;5.558;2022-08-05T03:46:38;24.00;68.80
7738;DHT22;29398;45.328;5.558;2022-08-05T03:47:40;24.00;69.40
7738;DHT22;29398;45.328;5.558;2022-08-05T03:48:41;24.00;69.40
7738;DHT22;29398;45.328;5.558;2022-08-05T03:49:43;24.10;69.60
7738;DHT22;29398;45.328;5.558;2022-08-05T03:51:00;24.10;69.90
7738;DHT22;29398;45.328;5.558;2022-08-05T03:52:07;24.00;70.30
7738;DHT22;29398;45.328;5.558;2022-08-05T03:53:13;23.90;69.70
7738;DHT22;29398;45.328;5.558;2022-08-05T03:54:20;23.90;69.80
7738;DHT22;29398;45.328;5.558;2022-08-05T03:55:26;23.90;69.90
7738;DHT22;29398;45.328;5.558;2022-08-05T03:56:35;23.90;70.10
7738;DHT22;29398;45.328;5.558;2022-08-05T03:57:39;24.00;70.20
7738;DHT22;29398;45.328;5.558;2022-08-05T03:58:45;24.00;70.10
7738;DHT22;29398;45.328;5.558;2022-08-05T03:59:52;24.00;70.20
7738;DHT22;29398;45.328;5.558;2022-08-05T04:00:54;24.00;70.20
7738;DHT22;29398;45.328;5.558;2022-08-05T04:02:00;24.00;70.20
7738;DHT22;29398;45.328;5.558;2022-08-05T04:03:04;24.00;70.40
7738;DHT22;29398;45.328;5.558;2022-08-05T04:04:08;23.90;70.40
7738;DHT22;29398;45.328;5.558;2022-08-05T04:05:11;23.90;70.70
7738;DHT22;29398;45.328;5.558;2022-08-05T04:06:13;23.90;70.80
7738;DHT22;29398;45.328;5.558;2022-08-05T04:07:16;23.80;71.20
7738;DHT22;29398;45.328;5.558;2022-08-05T04:08:18;23.80;71.20
7738;DHT22;29398;45.328;5.558;2022-08-05T04:09:21;23.80;71.40
7738;DHT22;29398;45.328;5.558;2022-08-05T04:10:22;23.80;71.50
7738;DHT22;29398;45.328;5.558;2022-08-05T04:11:24;23.80;71.90
7738;DHT22;29398;45.328;5.558;2022-08-05T04:12:27;23.90;72.00
7738;DHT22;29398;45.328;5.558;2022-08-05T04:13:29;23.90;72.00
7738;DHT22;29398;45.328;5.558;2022-08-05T04:14:31;24.00;72.10
7738;DHT22;29398;45.328;5.558;2022-08-05T04:15:32;23.90;72.10
7738;DHT22;29398;45.328;5.558;2022-08-05T04:16:35;24.00;72.10
7738;DHT22;29398;45.328;5.558;2022-08-05T04:17:38;23.90;72.90
7738;DHT22;29398;45.328;5.558;2022-08-05T04:18:40;23.90;72.10
7738;DHT22;29398;45.328;5.558;2022-08-05T04:19:42;23.90;72.20
7738;DHT22;29398;45.328;5.558;2022-08-05T04:20:44;24.00;72.30
7738;DHT22;29398;45.328;5.558;2022-08-05T04:21:52;23.90;72.10
7738;DHT22;29398;45.328;5.558;2022-08-05T04:22:54;24.00;72.40
7738;DHT22;29398;45.328;5.558;2022-08-05T04:23:55;24.00;72.40
7738;DHT22;29398;45.328;5.558;2022-08-05T04:24:58;24.00;72.50
7738;DHT22;29398;45.328;5.558;2022-08-05T04:25:59;24.00;72.60
7738;DHT22;29398;45.328;5.558;2022-08-05T04:27:01;24.00;72.70
7738;DHT22;29398;45.328;5.558;2022-08-05T04:28:03;23.90;73.20
7738;DHT22;29398;45.328;5.558;2022-08-05T04:29:05;23.90;72.90
7738;DHT22;29398;45.328;5.558;2022-08-05T04:30:07;23.90;73.00
7738;DHT22;29398;45.328;5.558;2022-08-05T04:31:10;23.90;73.00
7738;DHT22;29398;45.328;5.558;2022-08-05T04:32:11;23.90;73.00
7738;DHT22;29398;45.328;5.558;2022-08-05T04:33:15;23.90;73.00
7738;DHT22;29398;45.328;5.558;2022-08-05T04:34:16;23.90;73.00
7738;DHT22;29398;45.328;5.558;2022-08-05T04:35:18;23.90;73.10
7738;DHT22;29398;45.328;5.558;2022-08-05T04:36:19;24.00;73.10
7738;DHT22;29398;45.328;5.558;2022-08-05T04:37:21;24.00;73.10
7738;DHT22;29398;45.328;5.558;2022-08-05T04:38:22;23.90;73.20
7738;DHT22;29398;45.328;5.558;2022-08-05T04:39:24;23.90;73.30
7738;DHT22;29398;45.328;5.558;2022-08-05T04:40:26;23.90;73.50
7738;DHT22;29398;45.328;5.558;2022-08-05T04:41:28;23.90;73.80
7738;DHT22;29398;45.328;5.558;2022-08-05T04:42:29;23.90;74.00
7738;DHT22;29398;45.328;5.558;2022-08-05T04:43:31;23.80;74.00
7738;DHT22;29398;45.328;5.558;2022-08-05T04:44:32;23.80;74.00
7738;DHT22;29398;45.328;5.558;2022-08-05T04:45:35;23.80;74.30
7738;DHT22;29398;45.328;5.558;2022-08-05T04:46:36;23.80;74.40
7738;DHT22;29398;45.328;5.558;2022-08-05T04:47:38;23.80;74.50
7738;DHT22;29398;45.328;5.558;2022-08-05T04:48:41;23.80;74.60
7738;DHT22;29398;45.328;5.558;2022-08-05T04:49:43;23.80;74.50
7738;DHT22;29398;45.328;5.558;2022-08-05T04:50:46;23.90;74.70
7738;DHT22;29398;45.328;5.558;2022-08-05T04:51:49;23.80;74.90
7738;DHT22;29398;45.328;5.558;2022-08-05T04:52:50;23.90;75.30
7738;DHT22;29398;45.328;5.558;2022-08-05T04:53:52;23.80;75.20
7738;DHT22;29398;45.328;5.558;2022-08-05T04:54:53;23.80;75.50
7738;DHT22;29398;45.328;5.558;2022-08-05T04:55:55;23.80;75.60
7738;DHT22;29398;45.328;5.558;2022-08-05T04:56:57;23.80;75.80
7738;DHT22;29398;45.328;5.558;2022-08-05T04:57:59;23.80;75.90
7738;DHT22;29398;45.328;5.558;2022-08-05T04:59:01;23.70;76.10
7738;DHT22;29398;45.328;5.558;2022-08-05T05:00:04;23.80;76.50
7738;DHT22;29398;45.328;5.558;2022-08-05T05:01:05;23.80;76.40
7738;DHT22;29398;45.328;5.558;2022-08-05T05:02:07;23.80;76.30
7738;DHT22;29398;45.328;5.558;2022-08-05T05:03:09;23.80;76.40
7738;DHT22;29398;45.328;5.558;2022-08-05T05:04:13;23.80;76.40
7738;DHT22;29398;45.328;5.558;2022-08-05T05:05:14;23.70;76.40
7738;DHT22;29398;45.328;5.558;2022-08-05T05:06:17;23.70;76.50
7738;DHT22;29398;45.328;5.558;2022-08-05T05:07:19;23.60;77.00
7738;DHT22;29398;45.328;5.558;2022-08-05T05:08:21;23.60;77.00
7738;DHT22;29398;45.328;5.558;2022-08-05T05:09:22;23.50;77.80
7738;DHT22;29398;45.328;5.558;2022-08-05T05:10:24;23.50;78.50
7738;DHT22;29398;45.328;5.558;2022-08-05T05:11:25;23.40;79.00
7738;DHT22;29398;45.328;5.558;2022-08-05T05:12:27;23.30;78.80
7738;DHT22;29398;45.328;5.558;2022-08-05T05:13:29;23.20;78.80
7738;DHT22;29398;45.328;5.558;2022-08-05T05:14:31;23.20;79.00
7738;DHT22;29398;45.328;5.558;2022-08-05T05:15:32;23.10;79.70
7738;DHT22;29398;45.328;5.558;2022-08-05T05:16:34;23.10;79.10
7738;DHT22;29398;45.328;5.558;2022-08-05T05:17:36;23.10;79.10
7738;DHT22;29398;45.328;5.558;2022-08-05T05:18:38;23.20;79.00
7738;DHT22;29398;45.328;5.558;2022-08-05T05:19:41;23.20;79.00
7738;DHT22;29398;45.328;5.558;2022-08-05T05:20:45;23.20;79.10
7738;DHT22;29398;45.328;5.558;2022-08-05T05:21:46;23.20;79.90
7738;DHT22;29398;45.328;5.558;2022-08-05T05:22:48;23.20;80.40
7738;DHT22;29398;45.328;5.558;2022-08-05T05:23:50;23.20;79.90
7738;DHT22;29398;45.328;5.558;2022-08-05T05:24:52;23.20;79.80
7738;DHT22;29398;45.328;5.558;2022-08-05T05:25:53;23.20;80.00
7738;DHT22;29398;45.328;5.558;2022-08-05T05:26:55;23.20;80.40
7738;DHT22;29398;45.328;5.558;2022-08-05T05:28:59;23.10;79.70
7738;DHT22;29398;45.328;5.558;2022-08-05T05:30:01;23.20;80.30
7738;DHT22;29398;45.328;5.558;2022-08-05T05:31:03;23.20;80.60
7738;DHT22;29398;45.328;5.558;2022-08-05T05:32:05;23.20;80.70
7738;DHT22;29398;45.328;5.558;2022-08-05T05:33:07;23.20;80.80
7738;DHT22;29398;45.328;5.558;2022-08-05T05:34:08;23.10;81.40
7738;DHT22;29398;45.328;5.558;2022-08-05T05:35:12;23.10;81.20
7738;DHT22;29398;45.328;5.558;2022-08-05T05:36:13;23.20;81.40
7738;DHT22;29398;45.328;5.558;2022-08-05T05:37:15;23.20;81.40
7738;DHT22;29398;45.328;5.558;2022-08-05T05:38:16;23.20;81.50
7738;DHT22;29398;45.328;5.558;2022-08-05T05:39:18;23.30;81.40
7738;DHT22;29398;45.328;5.558;2022-08-05T05:40:21;23.30;81.50
7738;DHT22;29398;45.328;5.558;2022-08-05T05:41:23;23.40;81.20
7738;DHT22;29398;45.328;5.558;2022-08-05T05:42:25;23.40;80.90
7738;DHT22;29398;45.328;5.558;2022-08-05T05:43:27;23.50;80.70
7738;DHT22;29398;45.328;5.558;2022-08-05T05:44:28;23.50;80.90
7738;DHT22;29398;45.328;5.558;2022-08-05T05:45:30;23.60;80.60
7738;DHT22;29398;45.328;5.558;2022-08-05T05:46:31;23.60;80.70
7738;DHT22;29398;45.328;5.558;2022-08-05T05:47:34;23.60;80.50
7738;DHT22;29398;45.328;5.558;2022-08-05T05:48:35;23.70;81.00
7738;DHT22;29398;45.328;5.558;2022-08-05T05:49:37;23.70;81.00
7738;DHT22;29398;45.328;5.558;2022-08-05T05:50:39;23.60;81.00
7738;DHT22;29398;45.328;5.558;2022-08-05T05:51:42;23.60;80.80
7738;DHT22;29398;45.328;5.558;2022-08-05T05:52:44;23.70;80.90
7738;DHT22;29398;45.328;5.558;2022-08-05T05:53:47;23.70;80.70
7738;DHT22;29398;45.328;5.558;2022-08-05T05:54:48;23.80;80.70
7738;DHT22;29398;45.328;5.558;2022-08-05T05:55:50;23.80;80.70
7738;DHT22;29398;45.328;5.558;2022-08-05T05:56:51;23.90;80.70
7738;DHT22;29398;45.328;5.558;2022-08-05T05:57:53;23.90;80.30
7738;DHT22;29398;45.328;5.558;2022-08-05T05:58:54;24.00;80.10
7738;DHT22;29398;45.328;5.558;2022-08-05T05:59:56;24.10;80.00
7738;DHT22;29398;45.328;5.558;2022-08-05T06:00:58;24.10;80.20
7738;DHT22;29398;45.328;5.558;2022-08-05T06:02:00;24.10;80.20
7738;DHT22;29398;45.328;5.558;2022-08-05T06:03:02;24.20;80.30
7738;DHT22;29398;45.328;5.558;2022-08-05T06:04:03;24.20;80.10
7738;DHT22;29398;45.328;5.558;2022-08-05T06:05:06;24.20;79.90
7738;DHT22;29398;45.328;5.558;2022-08-05T06:06:09;24.30;79.90
7738;DHT22;29398;45.328;5.558;2022-08-05T06:07:11;24.40;80.10
7738;DHT22;29398;45.328;5.558;2022-08-05T06:08:12;24.40;79.90
7738;DHT22;29398;45.328;5.558;2022-08-05T06:09:15;24.50;79.70
7738;DHT22;29398;45.328;5.558;2022-08-05T06:10:16;24.50;79.60
7738;DHT22;29398;45.328;5.558;2022-08-05T06:11:18;24.50;79.40
7738;DHT22;29398;45.328;5.558;2022-08-05T06:12:19;24.60;79.50
7738;DHT22;29398;45.328;5.558;2022-08-05T06:13:21;24.70;79.50
7738;DHT22;29398;45.328;5.558;2022-08-05T06:14:23;24.80;79.30
7738;DHT22;29398;45.328;5.558;2022-08-05T06:15:25;24.80;79.10
7738;DHT22;29398;45.328;5.558;2022-08-05T06:16:26;24.90;79.30
7738;DHT22;29398;45.328;5.558;2022-08-05T06:17:28;24.90;79.00
7738;DHT22;29398;45.328;5.558;2022-08-05T06:18:29;24.90;78.90
7738;DHT22;29398;45.328;5.558;2022-08-05T06:19:32;24.90;78.90
7738;DHT22;29398;45.328;5.558;2022-08-05T06:20:33;24.90;78.90
7738;DHT22;29398;45.328;5.558;2022-08-05T06:21:37;25.00;79.20
7738;DHT22;29398;45.328;5.558;2022-08-05T06:22:39;25.00;79.40
7738;DHT22;29398;45.328;5.558;2022-08-05T06:23:40;25.10;80.00
7738;DHT22;29398;45.328;5.558;2022-08-05T06:24:42;25.10;79.60
7738;DHT22;29398;45.328;5.558;2022-08-05T06:25:43;25.10;79.60
7738;DHT22;29398;45.328;5.558;2022-08-05T06:26:45;25.20;79.60
7738;DHT22;29398;45.328;5.558;2022-08-05T06:27:46;25.20;79.70
7738;DHT22;29398;45.328;5.558;2022-08-05T06:28:48;25.20;79.90
7738;DHT22;29398;45.328;5.558;2022-08-05T06:29:49;25.20;80.30
7738;DHT22;29398;45.328;5.558;2022-08-05T06:30:51;25.20;80.70
7738;DHT22;29398;45.328;5.558;2022-08-05T06:31:53;25.20;80.70
7738;DHT22;29398;45.328;5.558;2022-08-05T06:32:55;25.30;81.40
7738;DHT22;29398;45.328;5.558;2022-08-05T06:33:56;25.30;81.50
7738;DHT22;29398;45.328;5.558;2022-08-05T06:34:58;25.30;81.40
7738;DHT22;29398;45.328;5.558;2022-08-05T06:36:00;25.30;81.80
7738;DHT22;29398;45.328;5.558;2022-08-05T06:37:03;25.40;81.50
7738;DHT22;29398;45.328;5.558;2022-08-05T06:38:04;25.40;82.50
7738;DHT22;29398;45.328;5.558;2022-08-05T06:39:07;25.50;82.10
7738;DHT22;29398;45.328;5.558;2022-08-05T06:40:09;25.50;82.00
7738;DHT22;29398;45.328;5.558;2022-08-05T06:41:11;25.50;82.80
7738;DHT22;29398;45.328;5.558;2022-08-05T06:42:12;25.50;82.60
7738;DHT22;29398;45.328;5.558;2022-08-05T06:43:16;25.50;83.40
7738;DHT22;29398;45.328;5.558;2022-08-05T06:44:17;25.50;83.20
7738;DHT22;29398;45.328;5.558;2022-08-05T06:45:23;25.50;82.80
7738;DHT22;29398;45.328;5.558;2022-08-05T06:46:25;26.20;83.10
7738;DHT22;29398;45.328;5.558;2022-08-05T06:47:26;25.60;82.70
7738;DHT22;29398;45.328;5.558;2022-08-05T06:48:28;25.60;82.40
7738;DHT22;29398;45.328;5.558;2022-08-05T06:49:29;25.60;82.50
7738;DHT22;29398;45.328;5.558;2022-08-05T06:50:31;25.70;82.70
7738;DHT22;29398;45.328;5.558;2022-08-05T06:51:32;25.70;83.00
7738;DHT22;29398;45.328;5.558;2022-08-05T06:52:36;25.70;82.50
7738;DHT22;29398;45.328;5.558;2022-08-05T06:53:37;25.80;82.30